sensor_id;sensor_type;location;lat;lon;timestamp;temperature;humidity
17891;DHT22;9071;48.220;14.480;2023-08-12T00:00:42;14.30;99.90
17891;DHT22;9071;48.220;14.480;2023-08-12T00:05:45;14.40;99.90
17891;DHT22;9071;48.220;14.480;2023-08-12T00:10:47;14.50;99.90
17891;DHT22;9071;48.220;14.480;2023-08-12T00:15:52;14.40;99.90
17891;DHT22;9071;48.220;14.480;2023-08-12T00:20:54;14.20;99.90
17891;DHT22;9071;48.220;14.480;2023-08-12T00:25:58;14.20;99.90
17891;DHT22;9071;48.220;14.480;2023-08-12T00:31:02;14.10;99.90
17891;DHT22;9071;48.220;14.480;2023-08-12T00:36:05;13.90;99.90
17891;DHT22;9071;48.220;14.480;2023-08-12T00:41:07;13.90;99.90
17891;DHT22;9071;48.220;14.480;2023-08-12T00:46:11;13.80;99.90
17891;DHT22;9071;48.220;14.480;2023-08-12T00:51:15;13.80;99.90
17891;DHT22;9071;48.220;14.480;2023-08-12T00:56:18;13.70;99.90
17891;DHT22;9071;48.220;14.480;2023-08-12T01:01:21;13.80;99.90
17891;DHT22;9071;48.220;14.480;2023-08-12T01:06:23;13.80;99.90
17891;DHT22;9071;48.220;14.480;2023-08-12T01:11:28;13.80;99.90
17891;DHT22;9071;48.220;14.480;2023-08-12T01:16:34;13.60;99.90
17891;DHT22;9071;48.220;14.480;2023-08-12T01:21:40;13.60;99.90
17891;DHT22;9071;48.220;14.480;2023-08-12T01:26:45;13.40;99.90
17891;DHT22;9071;48.220;14.480;2023-08-12T01:31:52;13.30;99.90
17891;DHT22;9071;48.220;14.480;2023-08-12T01:36:58;13.40;99.90
17891;DHT22;9071;48.220;14.480;2023-08-12T01:42:03;13.50;99.90
17891;DHT22;9071;48.220;14.480;2023-08-12T01:47:07;13.50;99.90
17891;DHT22;9071;48.220;14.480;2023-08-12T01:52:09;13.40;99.90
17891;DHT22;9071;48.220;14.480;2023-08-12T01:57:13;13.40;99.90
17891;DHT22;9071;48.220;14.480;2023-08-12T02:02:15;13.30;99.90
17891;DHT22;9071;48.220;14.480;2023-08-12T02:07:17;13.30;99.90
17891;DHT22;9071;48.220;14.480;2023-08-12T02:12:20;13.20;99.90
17891;DHT22;9071;48.220;14.480;2023-08-12T02:17:22;13.00;99.90
17891;DHT22;9071;48.220;14.480;2023-08-12T02:22:24;13.00;99.90
17891;DHT22;9071;48.220;14.480;2023-08-12T02:27:28;12.90;99.90
17891;DHT22;9071;48.220;14.480;2023-08-12T02:32:30;12.90;99.90
17891;DHT22;9071;48.220;14.480;2023-08-12T02:37:32;13.00;99.90
17891;DHT22;9071;48.220;14.480;2023-08-12T02:42:36;12.90;99.90
17891;DHT22;9071;48.220;14.480;2023-08-12T02:47:38;12.80;99.90
17891;DHT22;9071;48.220;14.480;2023-08-12T02:52:40;12.70;99.90
17891;DHT22;9071;48.220;14.480;2023-08-12T02:57:43;12.50;99.90
17891;DHT22;9071;48.220;14.480;2023-08-12T03:02:45;12.40;99.90
17891;DHT22;9071;48.220;14.480;2023-08-12T03:07:47;12.60;99.90
17891;DHT22;9071;48.220;14.480;2023-08-12T03:12:51;12.80;99.90
17891;DHT22;9071;48.220;14.480;2023-08-12T03:17:54;12.80;99.90
17891;DHT22;9071;48.220;14.480;2023-08-12T03:22:57;12.80;99.90
17891;DHT22;9071;48.220;14.480;2023-08-12T03:28:01;12.90;99.90
17891;DHT22;9071;48.220;14.480;2023-08-12T03:33:04;12.80;99.90
17891;DHT22;9071;48.220;14.480;2023-08-12T03:38:06;12.70;99.90
17891;DHT22;9071;48.220;14.480;2023-08-12T03:43:09;12.60;99.90
17891;DHT22;9071;48.220;14.480;2023-08-12T03:48:11;12.50;99.90
17891;DHT22;9071;48.220;14.480;2023-08-12T03:53:13;12.40;99.90
17891;DHT22;9071;48.220;14.480;2023-08-12T03:58:17;12.40;99.90
17891;DHT22;9071;48.220;14.480;2023-08-12T04:03:19;12.30;99.90
17891;DHT22;9071;48.220;14.480;2023-08-12T04:08:22;12.20;99.90
17891;DHT22;9071;48.220;14.480;2023-08-12T04:13:26;12.30;99.90
17891;DHT22;9071;48.220;14.480;2023-08-12T04:18:28;12.40;99.90
17891;DHT22;9071;48.220;14.480;2023-08-12T04:23:30;12.70;99.90
17891;DHT22;9071;48.220;14.480;2023-08-12T04:28:34;12.70;99.90
17891;DHT22;9071;48.220;14.480;2023-08-12T04:33:36;12.70;99.90
17891;DHT22;9071;48.220;14.480;2023-08-12T04:38:38;12.80;99.90
17891;DHT22;9071;48.220;14.480;2023-08-12T04:43:42;12.90;99.90
17891;DHT22;9071;48.220;14.480;2023-08-12T04:48:44;13.00;99.90
17891;DHT22;9071;48.220;14.480;2023-08-12T04:53:46;13.20;99.90
17891;DHT22;9071;48.220;14.480;2023-08-12T04:58:49;13.30;99.90
17891;DHT22;9071;48.220;14.480;2023-08-12T05:03:52;13.50;99.90
17891;DHT22;9071;48.220;14.480;2023-08-12T05:08:54;13.60;99.90
17891;DHT22;9071;48.220;14.480;2023-08-12T05:13:57;13.80;99.90
17891;DHT22;9071;48.220;14.480;2023-08-12T05:18:59;14.00;99.90
17891;DHT22;9071;48.220;14.480;2023-08-12T05:24:01;14.10;99.90
17891;DHT22;9071;48.220;14.480;2023-08-12T05:29:05;14.40;99.90
17891;DHT22;9071;48.220;14.480;2023-08-12T05:34:07;14.70;99.90
17891;DHT22;9071;48.220;14.480;2023-08-12T05:39:09;15.00;99.90
17891;DHT22;9071;48.220;14.480;2023-08-12T05:44:13;17.50;99.90
17891;DHT22;9071;48.220;14.480;2023-08-12T05:49:15;21.00;99.90
17891;DHT22;9071;48.220;14.480;2023-08-12T05:54:17;23.60;99.90
17891;DHT22;9071;48.220;14.480;2023-08-12T05:59:20;25.30;99.90
17891;DHT22;9071;48.220;14.480;2023-08-12T06:04:22;26.10;99.90
17891;DHT22;9071;48.220;14.480;2023-08-12T06:09:25;26.90;99.90
17891;DHT22;9071;48.220;14.480;2023-08-12T06:14:29;26.50;99.90
17891;DHT22;9071;48.220;14.480;2023-08-12T06:19:31;26.40;99.90
17891;DHT22;9071;48.220;14.480;2023-08-12T06:24:33;27.00;99.90
17891;DHT22;9071;48.220;14.480;2023-08-12T06:29:36;27.10;99.90
17891;DHT22;9071;48.220;14.480;2023-08-12T06:34:38;27.20;99.90
17891;DHT22;9071;48.220;14.480;2023-08-12T06:39:40;26.60;99.90
17891;DHT22;9071;48.220;14.480;2023-08-12T06:44:45;25.90;99.90
17891;DHT22;9071;48.220;14.480;2023-08-12T06:49:47;27.60;99.90
17891;DHT22;9071;48.220;14.480;2023-08-12T06:54:49;26.00;99.90
17891;DHT22;9071;48.220;14.480;2023-08-12T06:59:53;25.80;99.90
17891;DHT22;9071;48.220;14.480;2023-08-12T07:04:55;24.90;99.90
17891;DHT22;9071;48.220;14.480;2023-08-12T07:09:57;25.80;99.90
17891;DHT22;9071;48.220;14.480;2023-08-12T07:15:00;26.20;99.90
17891;DHT22;9071;48.220;14.480;2023-08-12T07:20:02;27.70;99.90
17891;DHT22;9071;48.220;14.480;2023-08-12T07:25:05;28.60;99.90
17891;DHT22;9071;48.220;14.480;2023-08-12T07:30:10;29.20;99.90
17891;DHT22;9071;48.220;14.480;2023-08-12T07:35:12;30.50;99.90
17891;DHT22;9071;48.220;14.480;2023-08-12T07:40:14;29.90;99.90
17891;DHT22;9071;48.220;14.480;2023-08-12T07:45:18;29.70;99.90
17891;DHT22;9071;48.220;14.480;2023-08-12T07:50:20;31.20;99.90
17891;DHT22;9071;48.220;14.480;2023-08-12T07:55:22;30.70;99.90
17891;DHT22;9071;48.220;14.480;2023-08-12T08:00:26;28.80;99.90
17891;DHT22;9071;48.220;14.480;2023-08-12T08:05:28;28.60;99.90
17891;DHT22;9071;48.220;14.480;2023-08-12T08:10:30;30.00;99.90
17891;DHT22;9071;48.220;14.480;2023-08-12T08:15:34;27.80;99.90
17891;DHT22;9071;48.220;14.480;2023-08-12T08:20:36;25.40;99.90
17891;DHT22;9071;48.220;14.480;2023-08-12T08:25:38;24.10;99.90
17891;DHT22;9071;48.220;14.480;2023-08-12T08:30:41;23.30;99.90
17891;DHT22;9071;48.220;14.480;2023-08-12T08:35:43;23.60;99.90
17891;DHT22;9071;48.220;14.480;2023-08-12T08:40:46;24.10;99.90
17891;DHT22;9071;48.220;14.480;2023-08-12T08:45:53;24.40;99.90
17891;DHT22;9071;48.220;14.480;2023-08-12T08:50:55;24.10;99.90
17891;DHT22;9071;48.220;14.480;2023-08-12T08:55:58;24.70;99.90
17891;DHT22;9071;48.220;14.480;2023-08-12T09:01:02;25.10;99.90
17891;DHT22;9071;48.220;14.480;2023-08-12T09:06:04;25.10;99.90
17891;DHT22;9071;48.220;14.480;2023-08-12T09:11:07;25.20;99.90
17891;DHT22;9071;48.220;14.480;2023-08-12T09:16:11;25.40;99.90
17891;DHT22;9071;48.220;14.480;2023-08-12T09:21:13;25.70;99.90
17891;DHT22;9071;48.220;14.480;2023-08-12T09:26:19;26.20;99.90
17891;DHT22;9071;48.220;14.480;2023-08-12T09:31:24;26.20;99.90
17891;DHT22;9071;48.220;14.480;2023-08-12T09:36:30;26.40;99.90
17891;DHT22;9071;48.220;14.480;2023-08-12T09:41:32;26.10;99.90
17891;DHT22;9071;48.220;14.480;2023-08-12T09:46:36;26.20;99.90
17891;DHT22;9071;48.220;14.480;2023-08-12T09:51:39;26.60;99.90
17891;DHT22;9071;48.220;14.480;2023-08-12T09:56:43;26.90;99.90
17891;DHT22;9071;48.220;14.480;2023-08-12T10:01:50;27.00;99.90
17891;DHT22;9071;48.220;14.480;2023-08-12T10:06:54;27.00;99.90
17891;DHT22;9071;48.220;14.480;2023-08-12T10:11:57;27.10;99.90
17891;DHT22;9071;48.220;14.480;2023-08-12T10:17:01;27.70;99.90
17891;DHT22;9071;48.220;14.480;2023-08-12T10:22:05;27.90;99.90
17891;DHT22;9071;48.220;14.480;2023-08-12T10:27:08;28.00;99.90
17891;DHT22;9071;48.220;14.480;2023-08-12T10:32:13;28.20;99.90
17891;DHT22;9071;48.220;14.480;2023-08-12T10:37:15;28.40;99.90
17891;DHT22;9071;48.220;14.480;2023-08-12T10:42:42;28.50;99.90
17891;DHT22;9071;48.220;14.480;2023-08-12T10:47:48;28.60;99.90
17891;DHT22;9071;48.220;14.480;2023-08-12T10:52:52;28.50;99.90
17891;DHT22;9071;48.220;14.480;2023-08-12T10:57:55;28.70;99.90
17891;DHT22;9071;48.220;14.480;2023-08-12T11:03:05;28.80;99.90
17891;DHT22;9071;48.220;14.480;2023-08-12T11:08:08;29.00;99.90
17891;DHT22;9071;48.220;14.480;2023-08-12T11:13:10;29.00;99.90
17891;DHT22;9071;48.220;14.480;2023-08-12T11:18:15;29.00;99.90
17891;DHT22;9071;48.220;14.480;2023-08-12T11:23:17;29.10;99.90
17891;DHT22;9071;48.220;14.480;2023-08-12T11:28:21;29.10;99.90
17891;DHT22;9071;48.220;14.480;2023-08-12T11:33:24;29.30;99.90
17891;DHT22;9071;48.220;14.480;2023-08-12T11:38:27;29.50;99.90
17891;DHT22;9071;48.220;14.480;2023-08-12T11:43:29;29.60;99.90
17891;DHT22;9071;48.220;14.480;2023-08-12T11:48:35;29.60;99.90
17891;DHT22;9071;48.220;14.480;2023-08-12T11:53:37;29.50;99.90
17891;DHT22;9071;48.220;14.480;2023-08-12T11:58:39;29.70;99.90
17891;DHT22;9071;48.220;14.480;2023-08-12T12:03:43;29.90;99.90
17891;DHT22;9071;48.220;14.480;2023-08-12T12:08:45;30.00;99.90
17891;DHT22;9071;48.220;14.480;2023-08-12T12:13:47;30.20;99.90
17891;DHT22;9071;48.220;14.480;2023-08-12T12:18:57;30.30;99.90
17891;DHT22;9071;48.220;14.480;2023-08-12T12:23:59;30.50;99.90
17891;DHT22;9071;48.220;14.480;2023-08-12T12:29:01;30.40;99.90
17891;DHT22;9071;48.220;14.480;2023-08-12T12:34:06;30.30;99.90
17891;DHT22;9071;48.220;14.480;2023-08-12T12:39:10;30.30;99.90
17891;DHT22;9071;48.220;14.480;2023-08-12T12:44:12;30.20;99.90
17891;DHT22;9071;48.220;14.480;2023-08-12T12:49:16;30.30;99.90
17891;DHT22;9071;48.220;14.480;2023-08-12T12:54:18;30.40;99.90
17891;DHT22;9071;48.220;14.480;2023-08-12T12:59:20;30.50;99.90
17891;DHT22;9071;48.220;14.480;2023-08-12T13:04:23;30.70;99.90
17891;DHT22;9071;48.220;14.480;2023-08-12T13:09:25;30.80;99.90
17891;DHT22;9071;48.220;14.480;2023-08-12T13:14:28;30.90;99.90
17891;DHT22;9071;48.220;14.480;2023-08-12T13:19:32;31.00;99.90
17891;DHT22;9071;48.220;14.480;2023-08-12T13:24:34;31.10;99.90
17891;DHT22;9071;48.220;14.480;2023-08-12T13:29:37;31.10;99.90
17891;DHT22;9071;48.220;14.480;2023-08-12T13:34:41;31.20;99.90
17891;DHT22;9071;48.220;14.480;2023-08-12T13:39:43;30.90;99.90
17891;DHT22;9071;48.220;14.480;2023-08-12T13:44:46;30.90;99.90
17891;DHT22;9071;48.220;14.480;2023-08-12T13:49:49;30.90;99.90
17891;DHT22;9071;48.220;14.480;2023-08-12T13:54:52;30.90;99.90
17891;DHT22;9071;48.220;14.480;2023-08-12T13:59:54;31.00;99.90
17891;DHT22;9071;48.220;14.480;2023-08-12T14:04:58;31.10;99.90
17891;DHT22;9071;48.220;14.480;2023-08-12T14:10:00;31.10;99.90
17891;DHT22;9071;48.220;14.480;2023-08-12T14:15:02;31.20;99.90
17891;DHT22;9071;48.220;14.480;2023-08-12T14:20:07;31.20;99.90
17891;DHT22;9071;48.220;14.480;2023-08-12T14:25:09;31.20;99.90
17891;DHT22;9071;48.220;14.480;2023-08-12T14:30:13;31.20;99.90
17891;DHT22;9071;48.220;14.480;2023-08-12T14:35:16;31.10;99.90
17891;DHT22;9071;48.220;14.480;2023-08-12T14:40:18;31.00;99.90
17891;DHT22;9071;48.220;14.480;2023-08-12T14:45:20;31.00;99.90
17891;DHT22;9071;48.220;14.480;2023-08-12T14:50:24;31.00;99.90
17891;DHT22;9071;48.220;14.480;2023-08-12T14:55:26;30.90;99.90
17891;DHT22;9071;48.220;14.480;2023-08-12T15:00:28;30.90;99.90
17891;DHT22;9071;48.220;14.480;2023-08-12T15:05:32;31.00;99.90
17891;DHT22;9071;48.220;14.480;2023-08-12T15:10:34;30.90;99.90
17891;DHT22;9071;48.220;14.480;2023-08-12T15:15:36;30.70;99.90
17891;DHT22;9071;48.220;14.480;2023-08-12T15:20:40;30.80;99.90
17891;DHT22;9071;48.220;14.480;2023-08-12T15:25:43;30.80;99.90
17891;DHT22;9071;48.220;14.480;2023-08-12T15:30:48;30.80;99.90
17891;DHT22;9071;48.220;14.480;2023-08-12T15:35:51;30.80;99.90
17891;DHT22;9071;48.220;14.480;2023-08-12T15:40:53;30.60;99.90
17891;DHT22;9071;48.220;14.480;2023-08-12T15:45:55;30.50;99.90
17891;DHT22;9071;48.220;14.480;2023-08-12T15:50:59;30.60;99.90
17891;DHT22;9071;48.220;14.480;2023-08-12T15:56:01;30.60;99.90
17891;DHT22;9071;48.220;14.480;2023-08-12T16:01:03;30.50;99.90
17891;DHT22;9071;48.220;14.480;2023-08-12T16:06:06;30.50;99.90
17891;DHT22;9071;48.220;14.480;2023-08-12T16:11:09;30.40;99.90
17891;DHT22;9071;48.220;14.480;2023-08-12T16:16:11;30.40;99.90
17891;DHT22;9071;48.220;14.480;2023-08-12T16:21:14;30.20;99.90
17891;DHT22;9071;48.220;14.480;2023-08-12T16:26:16;29.90;99.90
17891;DHT22;9071;48.220;14.480;2023-08-12T16:31:18;29.90;99.90
17891;DHT22;9071;48.220;14.480;2023-08-12T16:36:22;30.00;99.90
17891;DHT22;9071;48.220;14.480;2023-08-12T16:41:25;30.10;99.90
17891;DHT22;9071;48.220;14.480;2023-08-12T16:46:27;30.10;99.90
17891;DHT22;9071;48.220;14.480;2023-08-12T16:51:30;30.00;99.90
17891;DHT22;9071;48.220;14.480;2023-08-12T16:56:32;29.80;99.90
17891;DHT22;9071;48.220;14.480;2023-08-12T17:01:34;29.80;99.90
17891;DHT22;9071;48.220;14.480;2023-08-12T17:06:38;29.80;99.90
17891;DHT22;9071;48.220;14.480;2023-08-12T17:11:40;29.80;99.90
17891;DHT22;9071;48.220;14.480;2023-08-12T17:16:42;29.70;99.90
17891;DHT22;9071;48.220;14.480;2023-08-12T17:21:46;29.70;99.90
17891;DHT22;9071;48.220;14.480;2023-08-12T17:26:48;29.60;99.90
17891;DHT22;9071;48.220;14.480;2023-08-12T17:31:50;29.50;99.90
17891;DHT22;9071;48.220;14.480;2023-08-12T17:36:54;29.20;99.90
17891;DHT22;9071;48.220;14.480;2023-08-12T17:41:56;28.90;99.90
17891;DHT22;9071;48.220;14.480;2023-08-12T17:46:58;28.50;99.90
17891;DHT22;9071;48.220;14.480;2023-08-12T17:52:02;28.10;99.90
17891;DHT22;9071;48.220;14.480;2023-08-12T17:57:04;27.70;99.90
17891;DHT22;9071;48.220;14.480;2023-08-12T18:02:06;27.30;99.90
17891;DHT22;9071;48.220;14.480;2023-08-12T18:07:10;27.00;99.90
17891;DHT22;9071;48.220;14.480;2023-08-12T18:12:12;26.60;99.90
17891;DHT22;9071;48.220;14.480;2023-08-12T18:17:14;26.30;99.90
17891;DHT22;9071;48.220;14.480;2023-08-12T18:22:18;26.10;99.90
17891;DHT22;9071;48.220;14.480;2023-08-12T18:27:20;25.80;99.90
17891;DHT22;9071;48.220;14.480;2023-08-12T18:32:22;25.50;99.90
17891;DHT22;9071;48.220;14.480;2023-08-12T18:37:26;25.30;99.90
17891;DHT22;9071;48.220;14.480;2023-08-12T18:42:28;25.00;99.90
17891;DHT22;9071;48.220;14.480;2023-08-12T18:47:30;24.70;99.90
17891;DHT22;9071;48.220;14.480;2023-08-12T18:52:33;24.50;99.90
17891;DHT22;9071;48.220;14.480;2023-08-12T18:57:36;24.20;99.90
17891;DHT22;9071;48.220;14.480;2023-08-12T19:02:38;23.90;99.90
17891;DHT22;9071;48.220;14.480;2023-08-12T19:07:41;23.70;99.90
17891;DHT22;9071;48.220;14.480;2023-08-12T19:12:43;23.40;99.90
17891;DHT22;9071;48.220;14.480;2023-08-12T19:17:45;23.30;99.90
17891;DHT22;9071;48.220;14.480;2023-08-12T19:22:49;23.10;99.90
17891;DHT22;9071;48.220;14.480;2023-08-12T19:27:51;23.00;99.90
17891;DHT22;9071;48.220;14.480;2023-08-12T19:32:54;22.80;99.90
17891;DHT22;9071;48.220;14.480;2023-08-12T19:37:58;22.80;99.90
17891;DHT22;9071;48.220;14.480;2023-08-12T19:43:00;22.70;99.90
17891;DHT22;9071;48.220;14.480;2023-08-12T19:48:03;22.60;99.90
17891;DHT22;9071;48.220;14.480;2023-08-12T19:53:06;22.40;99.90
17891;DHT22;9071;48.220;14.480;2023-08-12T19:58:08;22.30;99.90
17891;DHT22;9071;48.220;14.480;2023-08-12T20:03:10;22.10;99.90
17891;DHT22;9071;48.220;14.480;2023-08-12T20:08:14;22.00;99.90
17891;DHT22;9071;48.220;14.480;2023-08-12T20:13:16;21.90;99.90
17891;DHT22;9071;48.220;14.480;2023-08-12T20:18:18;21.80;99.90
17891;DHT22;9071;48.220;14.480;2023-08-12T20:23:21;21.90;99.90
17891;DHT22;9071;48.220;14.480;2023-08-12T20:28:23;22.00;99.90
17891;DHT22;9071;48.220;14.480;2023-08-12T20:33:25;22.00;99.90
17891;DHT22;9071;48.220;14.480;2023-08-12T20:38:29;22.00;99.90
17891;DHT22;9071;48.220;14.480;2023-08-12T20:43:31;21.80;99.90
17891;DHT22;9071;48.220;14.480;2023-08-12T20:48:34;21.60;99.90
17891;DHT22;9071;48.220;14.480;2023-08-12T20:53:38;21.60;99.90
17891;DHT22;9071;48.220;14.480;2023-08-12T20:58:40;21.50;99.90
17891;DHT22;9071;48.220;14.480;2023-08-12T21:03:42;21.40;99.90
17891;DHT22;9071;48.220;14.480;2023-08-12T21:08:46;21.30;99.90
17891;DHT22;9071;48.220;14.480;2023-08-12T21:13:48;21.20;99.90
17891;DHT22;9071;48.220;14.480;2023-08-12T21:18:50;21.10;99.90
17891;DHT22;9071;48.220;14.480;2023-08-12T21:23:53;20.90;99.90
17891;DHT22;9071;48.220;14.480;2023-08-12T21:28:55;20.90;99.90
17891;DHT22;9071;48.220;14.480;2023-08-12T21:33:57;20.70;99.90
17891;DHT22;9071;48.220;14.480;2023-08-12T21:39:01;20.60;99.90
17891;DHT22;9071;48.220;14.480;2023-08-12T21:44:05;20.50;99.90
17891;DHT22;9071;48.220;14.480;2023-08-12T21:49:07;20.40;99.90
17891;DHT22;9071;48.220;14.480;2023-08-12T21:54:11;20.40;99.90
17891;DHT22;9071;48.220;14.480;2023-08-12T21:59:13;20.30;99.90
17891;DHT22;9071;48.220;14.480;2023-08-12T22:04:15;20.30;99.90
17891;DHT22;9071;48.220;14.480;2023-08-12T22:09:19;20.20;99.90
17891;DHT22;9071;48.220;14.480;2023-08-12T22:14:21;20.20;99.90
17891;DHT22;9071;48.220;14.480;2023-08-12T22:19:23;20.10;99.90
17891;DHT22;9071;48.220;14.480;2023-08-12T22:24:27;20.00;99.90
17891;DHT22;9071;48.220;14.480;2023-08-12T22:29:29;19.90;99.90
17891;DHT22;9071;48.220;14.480;2023-08-12T22:34:32;19.70;99.90
17891;DHT22;9071;48.220;14.480;2023-08-12T22:39:35;19.70;99.90
17891;DHT22;9071;48.220;14.480;2023-08-12T22:44:37;19.60;99.90
17891;DHT22;9071;48.220;14.480;2023-08-12T22:49:39;19.60;99.90
17891;DHT22;9071;48.220;14.480;2023-08-12T22:54:43;19.40;99.90
17891;DHT22;9071;48.220;14.480;2023-08-12T22:59:45;19.40;99.90
17891;DHT22;9071;48.220;14.480;2023-08-12T23:04:47;19.40;99.90
17891;DHT22;9071;48.220;14.480;2023-08-12T23:09:51;19.30;99.90
17891;DHT22;9071;48.220;14.480;2023-08-12T23:14:53;19.20;99.90
17891;DHT22;9071;48.220;14.480;2023-08-12T23:19:55;19.10;99.90
17891;DHT22;9071;48.220;14.480;2023-08-12T23:24:59;19.10;99.90
17891;DHT22;9071;48.220;14.480;2023-08-12T23:30:01;19.20;99.90
17891;DHT22;9071;48.220;14.480;2023-08-12T23:35:04;19.20;99.90
17891;DHT22;9071;48.220;14.480;2023-08-12T23:40:10;19.20;99.90
17891;DHT22;9071;48.220;14.480;2023-08-12T23:45:13;19.20;99.90
17891;DHT22;9071;48.220;14.480;2023-08-12T23:50:15;19.10;99.90
17891;DHT22;9071;48.220;14.480;2023-08-12T23:55:18;19.10;99.90
